sensor_id;sensor_type;location;lat;lon;timestamp;P1;durP1;ratioP1;P2;durP2;ratioP2
4732;SDS011;2380;53.668;10.008;2022-11-15T00:01:39;57.43;;;26.40;;
4732;SDS011;2380;53.668;10.008;2022-11-15T00:04:09;58.07;;;27.60;;
4732;SDS011;2380;53.668;10.008;2022-11-15T00:06:39;57.10;;;27.90;;
4732;SDS011;2380;53.668;10.008;2022-11-15T00:09:08;58.77;;;25.80;;
4732;SDS011;2380;53.668;10.008;2022-11-15T00:11:40;53.50;;;26.27;;
4732;SDS011;2380;53.668;10.008;2022-11-15T00:14:10;53.13;;;26.50;;
4732;SDS011;2380;53.668;10.008;2022-11-15T00:16:39;53.07;;;26.40;;
4732;SDS011;2380;53.668;10.008;2022-11-15T00:19:09;50.03;;;25.20;;
4732;SDS011;2380;53.668;10.008;2022-11-15T00:21:38;53.20;;;25.83;;
4732;SDS011;2380;53.668;10.008;2022-11-15T00:24:08;47.83;;;25.40;;
4732;SDS011;2380;53.668;10.008;2022-11-15T00:26:37;50.27;;;25.30;;
4732;SDS011;2380;53.668;10.008;2022-11-15T00:29:09;57.60;;;27.57;;
4732;SDS011;2380;53.668;10.008;2022-11-15T00:31:39;51.57;;;25.53;;
4732;SDS011;2380;53.668;10.008;2022-11-15T00:34:08;53.90;;;27.30;;
4732;SDS011;2380;53.668;10.008;2022-11-15T00:36:38;49.17;;;24.30;;
4732;SDS011;2380;53.668;10.008;2022-11-15T00:39:07;53.90;;;27.17;;
4732;SDS011;2380;53.668;10.008;2022-11-15T00:41:37;53.40;;;26.30;;
4732;SDS011;2380;53.668;10.008;2022-11-15T00:44:09;58.17;;;26.63;;
4732;SDS011;2380;53.668;10.008;2022-11-15T00:46:39;55.50;;;27.50;;
4732;SDS011;2380;53.668;10.008;2022-11-15T00:49:08;51.13;;;24.83;;
4732;SDS011;2380;53.668;10.008;2022-11-15T00:51:37;55.07;;;25.30;;
4732;SDS011;2380;53.668;10.008;2022-11-15T00:54:07;54.70;;;26.07;;
4732;SDS011;2380;53.668;10.008;2022-11-15T00:56:36;58.73;;;28.73;;
4732;SDS011;2380;53.668;10.008;2022-11-15T00:59:06;55.93;;;26.33;;
4732;SDS011;2380;53.668;10.008;2022-11-15T01:01:38;70.17;;;35.03;;
4732;SDS011;2380;53.668;10.008;2022-11-15T01:04:07;52.03;;;25.30;;
4732;SDS011;2380;53.668;10.008;2022-11-15T01:06:37;72.67;;;32.50;;
4732;SDS011;2380;53.668;10.008;2022-11-15T01:09:06;64.40;;;29.70;;
4732;SDS011;2380;53.668;10.008;2022-11-15T01:11:35;58.93;;;29.57;;
4732;SDS011;2380;53.668;10.008;2022-11-15T01:14:05;66.20;;;31.63;;
4732;SDS011;2380;53.668;10.008;2022-11-15T01:16:34;67.43;;;31.30;;
4732;SDS011;2380;53.668;10.008;2022-11-15T01:19:06;56.97;;;28.07;;
4732;SDS011;2380;53.668;10.008;2022-11-15T01:21:36;51.67;;;24.87;;
4732;SDS011;2380;53.668;10.008;2022-11-15T01:24:05;58.50;;;27.00;;
4732;SDS011;2380;53.668;10.008;2022-11-15T01:26:35;55.03;;;26.30;;
4732;SDS011;2380;53.668;10.008;2022-11-15T01:29:04;50.87;;;26.93;;
4732;SDS011;2380;53.668;10.008;2022-11-15T01:31:34;52.10;;;25.40;;
4732;SDS011;2380;53.668;10.008;2022-11-15T01:34:06;54.43;;;26.30;;
4732;SDS011;2380;53.668;10.008;2022-11-15T01:36:36;48.73;;;24.30;;
4732;SDS011;2380;53.668;10.008;2022-11-15T01:39:05;45.27;;;24.20;;
4732;SDS011;2380;53.668;10.008;2022-11-15T01:41:35;49.57;;;25.33;;
4732;SDS011;2380;53.668;10.008;2022-11-15T01:47:06;51.23;;;25.80;;
4732;SDS011;2380;53.668;10.008;2022-11-15T01:49:41;46.73;;;24.53;;
4732;SDS011;2380;53.668;10.008;2022-11-15T01:52:17;52.90;;;26.10;;
4732;SDS011;2380;53.668;10.008;2022-11-15T01:54:48;48.70;;;24.50;;
4732;SDS011;2380;53.668;10.008;2022-11-15T01:57:21;58.60;;;24.97;;
4732;SDS011;2380;53.668;10.008;2022-11-15T01:59:50;57.37;;;25.77;;
4732;SDS011;2380;53.668;10.008;2022-11-15T02:02:20;53.97;;;25.67;;
4732;SDS011;2380;53.668;10.008;2022-11-15T02:04:52;47.23;;;24.73;;
4732;SDS011;2380;53.668;10.008;2022-11-15T02:07:21;54.20;;;23.83;;
4732;SDS011;2380;53.668;10.008;2022-11-15T02:09:51;49.93;;;24.20;;
4732;SDS011;2380;53.668;10.008;2022-11-15T02:12:21;52.23;;;24.90;;
4732;SDS011;2380;53.668;10.008;2022-11-15T02:14:52;44.53;;;23.80;;
4732;SDS011;2380;53.668;10.008;2022-11-15T02:17:26;49.83;;;24.43;;
4732;SDS011;2380;53.668;10.008;2022-11-15T02:20:23;51.43;;;25.23;;
4732;SDS011;2380;53.668;10.008;2022-11-15T02:26:07;52.30;;;25.67;;
4732;SDS011;2380;53.668;10.008;2022-11-15T02:28:56;50.83;;;26.43;;
4732;SDS011;2380;53.668;10.008;2022-11-15T02:31:31;48.50;;;24.63;;
4732;SDS011;2380;53.668;10.008;2022-11-15T02:34:06;47.63;;;24.27;;
4732;SDS011;2380;53.668;10.008;2022-11-15T02:36:40;46.50;;;23.90;;
4732;SDS011;2380;53.668;10.008;2022-11-15T02:39:16;46.97;;;24.77;;
4732;SDS011;2380;53.668;10.008;2022-11-15T02:41:52;50.13;;;24.43;;
4732;SDS011;2380;53.668;10.008;2022-11-15T02:44:23;48.27;;;24.80;;
4732;SDS011;2380;53.668;10.008;2022-11-15T02:46:57;51.57;;;25.03;;
4732;SDS011;2380;53.668;10.008;2022-11-15T02:49:41;52.63;;;25.13;;
4732;SDS011;2380;53.668;10.008;2022-11-15T02:52:14;50.87;;;24.00;;
4732;SDS011;2380;53.668;10.008;2022-11-15T02:54:52;50.53;;;24.50;;
4732;SDS011;2380;53.668;10.008;2022-11-15T02:57:26;51.00;;;24.83;;
4732;SDS011;2380;53.668;10.008;2022-11-15T03:00:03;47.17;;;23.67;;
4732;SDS011;2380;53.668;10.008;2022-11-15T03:02:54;48.03;;;24.47;;
4732;SDS011;2380;53.668;10.008;2022-11-15T03:05:29;46.00;;;24.27;;
4732;SDS011;2380;53.668;10.008;2022-11-15T03:08:04;49.50;;;24.63;;
4732;SDS011;2380;53.668;10.008;2022-11-15T03:10:40;46.73;;;23.77;;
4732;SDS011;2380;53.668;10.008;2022-11-15T03:13:19;54.27;;;25.40;;
4732;SDS011;2380;53.668;10.008;2022-11-15T03:15:53;47.00;;;22.50;;
4732;SDS011;2380;53.668;10.008;2022-11-15T03:18:29;46.83;;;24.30;;
4732;SDS011;2380;53.668;10.008;2022-11-15T03:21:03;51.13;;;24.00;;
4732;SDS011;2380;53.668;10.008;2022-11-15T03:23:35;46.60;;;23.97;;
4732;SDS011;2380;53.668;10.008;2022-11-15T03:26:07;50.33;;;22.90;;
4732;SDS011;2380;53.668;10.008;2022-11-15T03:28:38;41.90;;;22.73;;
4732;SDS011;2380;53.668;10.008;2022-11-15T03:31:13;47.00;;;23.60;;
4732;SDS011;2380;53.668;10.008;2022-11-15T03:33:58;43.57;;;22.73;;
4732;SDS011;2380;53.668;10.008;2022-11-15T03:36:28;44.77;;;22.93;;
4732;SDS011;2380;53.668;10.008;2022-11-15T03:39:00;48.00;;;23.30;;
4732;SDS011;2380;53.668;10.008;2022-11-15T03:41:33;45.03;;;22.80;;
4732;SDS011;2380;53.668;10.008;2022-11-15T03:44:07;46.70;;;23.13;;
4732;SDS011;2380;53.668;10.008;2022-11-15T03:46:42;47.40;;;23.30;;
4732;SDS011;2380;53.668;10.008;2022-11-15T03:49:19;48.43;;;23.37;;
4732;SDS011;2380;53.668;10.008;2022-11-15T03:51:52;53.10;;;24.30;;
4732;SDS011;2380;53.668;10.008;2022-11-15T03:54:21;46.07;;;24.70;;
4732;SDS011;2380;53.668;10.008;2022-11-15T03:56:51;42.97;;;21.90;;
4732;SDS011;2380;53.668;10.008;2022-11-15T03:59:20;45.57;;;23.47;;
4732;SDS011;2380;53.668;10.008;2022-11-15T04:01:50;47.33;;;22.83;;
4732;SDS011;2380;53.668;10.008;2022-11-15T04:04:22;40.80;;;22.30;;
4732;SDS011;2380;53.668;10.008;2022-11-15T04:06:51;47.47;;;22.60;;
4732;SDS011;2380;53.668;10.008;2022-11-15T04:09:21;44.50;;;22.27;;
4732;SDS011;2380;53.668;10.008;2022-11-15T04:11:50;64.33;;;31.67;;
4732;SDS011;2380;53.668;10.008;2022-11-15T04:14:20;54.87;;;28.37;;
4732;SDS011;2380;53.668;10.008;2022-11-15T04:16:49;123.40;;;56.00;;
4732;SDS011;2380;53.668;10.008;2022-11-15T04:19:19;109.23;;;48.37;;
4732;SDS011;2380;53.668;10.008;2022-11-15T04:22:03;71.30;;;34.97;;
4732;SDS011;2380;53.668;10.008;2022-11-15T04:24:45;53.37;;;28.03;;
4732;SDS011;2380;53.668;10.008;2022-11-15T04:27:14;48.23;;;24.60;;
4732;SDS011;2380;53.668;10.008;2022-11-15T04:29:44;38.90;;;20.90;;
4732;SDS011;2380;53.668;10.008;2022-11-15T04:32:13;40.70;;;19.40;;
4732;SDS011;2380;53.668;10.008;2022-11-15T04:34:45;39.07;;;19.57;;
4732;SDS011;2380;53.668;10.008;2022-11-15T04:37:15;38.17;;;19.70;;
4732;SDS011;2380;53.668;10.008;2022-11-15T04:39:44;40.93;;;20.17;;
4732;SDS011;2380;53.668;10.008;2022-11-15T04:42:13;35.53;;;19.40;;
4732;SDS011;2380;53.668;10.008;2022-11-15T04:44:43;35.80;;;19.70;;
4732;SDS011;2380;53.668;10.008;2022-11-15T04:47:12;34.50;;;19.63;;
4732;SDS011;2380;53.668;10.008;2022-11-15T04:49:42;37.43;;;21.10;;
4732;SDS011;2380;53.668;10.008;2022-11-15T04:52:14;34.37;;;19.50;;
4732;SDS011;2380;53.668;10.008;2022-11-15T04:54:43;37.07;;;20.90;;
4732;SDS011;2380;53.668;10.008;2022-11-15T04:57:12;40.10;;;20.27;;
4732;SDS011;2380;53.668;10.008;2022-11-15T04:59:43;40.07;;;21.40;;
4732;SDS011;2380;53.668;10.008;2022-11-15T05:02:12;39.70;;;20.90;;
4732;SDS011;2380;53.668;10.008;2022-11-15T05:04:44;37.67;;;19.80;;
4732;SDS011;2380;53.668;10.008;2022-11-15T05:07:11;39.73;;;21.03;;
4732;SDS011;2380;53.668;10.008;2022-11-15T05:09:41;40.13;;;19.77;;
4732;SDS011;2380;53.668;10.008;2022-11-15T05:12:10;35.90;;;20.27;;
4732;SDS011;2380;53.668;10.008;2022-11-15T05:14:40;35.97;;;20.50;;
4732;SDS011;2380;53.668;10.008;2022-11-15T05:17:09;38.03;;;20.90;;
4732;SDS011;2380;53.668;10.008;2022-11-15T05:19:38;39.87;;;21.07;;
4732;SDS011;2380;53.668;10.008;2022-11-15T05:22:11;40.70;;;21.17;;
4732;SDS011;2380;53.668;10.008;2022-11-15T05:24:40;34.57;;;18.63;;
4732;SDS011;2380;53.668;10.008;2022-11-15T05:27:10;34.40;;;18.63;;
4732;SDS011;2380;53.668;10.008;2022-11-15T05:29:39;37.23;;;19.83;;
4732;SDS011;2380;53.668;10.008;2022-11-15T05:32:09;34.40;;;18.60;;
4732;SDS011;2380;53.668;10.008;2022-11-15T05:34:38;35.67;;;18.80;;
4732;SDS011;2380;53.668;10.008;2022-11-15T05:37:10;34.60;;;18.03;;
4732;SDS011;2380;53.668;10.008;2022-11-15T05:39:40;35.93;;;18.60;;
4732;SDS011;2380;53.668;10.008;2022-11-15T05:42:10;31.97;;;17.80;;
4732;SDS011;2380;53.668;10.008;2022-11-15T05:44:41;35.73;;;19.07;;
4732;SDS011;2380;53.668;10.008;2022-11-15T05:47:13;35.43;;;19.73;;
4732;SDS011;2380;53.668;10.008;2022-11-15T05:49:45;36.20;;;19.23;;
4732;SDS011;2380;53.668;10.008;2022-11-15T05:52:20;37.13;;;18.60;;
4732;SDS011;2380;53.668;10.008;2022-11-15T05:54:51;41.40;;;17.83;;
4732;SDS011;2380;53.668;10.008;2022-11-15T05:57:21;38.13;;;18.70;;
4732;SDS011;2380;53.668;10.008;2022-11-15T05:59:51;33.60;;;19.17;;
4732;SDS011;2380;53.668;10.008;2022-11-15T06:02:20;31.80;;;18.43;;
4732;SDS011;2380;53.668;10.008;2022-11-15T06:04:50;32.57;;;17.70;;
4732;SDS011;2380;53.668;10.008;2022-11-15T06:07:22;34.60;;;17.70;;
4732;SDS011;2380;53.668;10.008;2022-11-15T06:09:52;34.73;;;18.13;;
4732;SDS011;2380;53.668;10.008;2022-11-15T06:12:21;33.53;;;18.10;;
4732;SDS011;2380;53.668;10.008;2022-11-15T06:14:51;36.07;;;18.53;;
4732;SDS011;2380;53.668;10.008;2022-11-15T06:17:20;32.53;;;18.20;;
4732;SDS011;2380;53.668;10.008;2022-11-15T06:19:49;37.10;;;19.17;;
4732;SDS011;2380;53.668;10.008;2022-11-15T06:22:21;32.80;;;17.60;;
4732;SDS011;2380;53.668;10.008;2022-11-15T06:24:54;30.97;;;18.47;;
4732;SDS011;2380;53.668;10.008;2022-11-15T06:27:30;35.20;;;18.60;;
4732;SDS011;2380;53.668;10.008;2022-11-15T06:30:00;34.90;;;19.43;;
4732;SDS011;2380;53.668;10.008;2022-11-15T06:32:29;33.40;;;17.23;;
4732;SDS011;2380;53.668;10.008;2022-11-15T06:34:59;29.63;;;17.10;;
4732;SDS011;2380;53.668;10.008;2022-11-15T06:37:31;35.20;;;17.70;;
4732;SDS011;2380;53.668;10.008;2022-11-15T06:40:02;32.93;;;17.60;;
4732;SDS011;2380;53.668;10.008;2022-11-15T06:42:32;35.90;;;18.77;;
4732;SDS011;2380;53.668;10.008;2022-11-15T06:45:02;34.60;;;17.60;;
4732;SDS011;2380;53.668;10.008;2022-11-15T06:47:32;34.43;;;18.07;;
4732;SDS011;2380;53.668;10.008;2022-11-15T06:50:01;35.07;;;17.93;;
4732;SDS011;2380;53.668;10.008;2022-11-15T06:52:34;33.63;;;18.13;;
4732;SDS011;2380;53.668;10.008;2022-11-15T06:55:04;32.63;;;17.33;;
4732;SDS011;2380;53.668;10.008;2022-11-15T06:57:34;37.33;;;19.47;;
4732;SDS011;2380;53.668;10.008;2022-11-15T07:00:05;34.90;;;17.40;;
4732;SDS011;2380;53.668;10.008;2022-11-15T07:02:36;31.70;;;17.90;;
4732;SDS011;2380;53.668;10.008;2022-11-15T07:05:05;33.40;;;16.93;;
4732;SDS011;2380;53.668;10.008;2022-11-15T07:07:38;32.90;;;17.10;;
4732;SDS011;2380;53.668;10.008;2022-11-15T07:10:08;29.77;;;16.57;;
4732;SDS011;2380;53.668;10.008;2022-11-15T07:12:38;36.70;;;17.90;;
4732;SDS011;2380;53.668;10.008;2022-11-15T07:15:08;34.63;;;18.63;;
4732;SDS011;2380;53.668;10.008;2022-11-15T07:17:38;34.70;;;18.33;;
4732;SDS011;2380;53.668;10.008;2022-11-15T07:20:08;31.57;;;18.97;;
4732;SDS011;2380;53.668;10.008;2022-11-15T07:22:40;35.07;;;17.90;;
4732;SDS011;2380;53.668;10.008;2022-11-15T07:25:11;31.37;;;18.20;;
4732;SDS011;2380;53.668;10.008;2022-11-15T07:27:41;33.97;;;18.37;;
4732;SDS011;2380;53.668;10.008;2022-11-15T07:30:11;33.13;;;19.03;;
4732;SDS011;2380;53.668;10.008;2022-11-15T07:32:41;30.77;;;18.27;;
4732;SDS011;2380;53.668;10.008;2022-11-15T07:35:11;29.80;;;16.60;;
4732;SDS011;2380;53.668;10.008;2022-11-15T07:37:43;32.93;;;17.80;;
4732;SDS011;2380;53.668;10.008;2022-11-15T07:40:12;32.70;;;17.00;;
4732;SDS011;2380;53.668;10.008;2022-11-15T07:42:42;33.67;;;18.17;;
4732;SDS011;2380;53.668;10.008;2022-11-15T07:45:23;36.17;;;19.10;;
4732;SDS011;2380;53.668;10.008;2022-11-15T07:47:54;30.30;;;17.27;;
4732;SDS011;2380;53.668;10.008;2022-11-15T07:50:24;30.43;;;17.07;;
4732;SDS011;2380;53.668;10.008;2022-11-15T07:52:58;29.80;;;17.03;;
4732;SDS011;2380;53.668;10.008;2022-11-15T07:55:28;31.70;;;17.30;;
4732;SDS011;2380;53.668;10.008;2022-11-15T07:58:01;27.60;;;16.50;;
4732;SDS011;2380;53.668;10.008;2022-11-15T08:00:31;31.97;;;17.37;;
4732;SDS011;2380;53.668;10.008;2022-11-15T08:03:01;30.20;;;17.20;;
4732;SDS011;2380;53.668;10.008;2022-11-15T08:05:32;27.90;;;16.87;;
4732;SDS011;2380;53.668;10.008;2022-11-15T08:08:04;32.37;;;16.87;;
4732;SDS011;2380;53.668;10.008;2022-11-15T08:10:34;29.73;;;16.77;;
4732;SDS011;2380;53.668;10.008;2022-11-15T08:13:06;33.67;;;17.27;;
4732;SDS011;2380;53.668;10.008;2022-11-15T08:15:37;27.40;;;16.50;;
4732;SDS011;2380;53.668;10.008;2022-11-15T08:18:12;30.63;;;16.70;;
4732;SDS011;2380;53.668;10.008;2022-11-15T08:20:43;29.50;;;16.30;;
4732;SDS011;2380;53.668;10.008;2022-11-15T08:23:15;27.90;;;16.60;;
4732;SDS011;2380;53.668;10.008;2022-11-15T08:25:45;32.70;;;17.27;;
4732;SDS011;2380;53.668;10.008;2022-11-15T08:28:15;30.67;;;17.40;;
4732;SDS011;2380;53.668;10.008;2022-11-15T08:30:45;31.07;;;16.20;;
4732;SDS011;2380;53.668;10.008;2022-11-15T08:33:15;29.77;;;17.67;;
4732;SDS011;2380;53.668;10.008;2022-11-15T08:35:44;33.30;;;17.37;;
4732;SDS011;2380;53.668;10.008;2022-11-15T08:38:16;28.60;;;15.73;;
4732;SDS011;2380;53.668;10.008;2022-11-15T08:40:46;29.03;;;16.00;;
4732;SDS011;2380;53.668;10.008;2022-11-15T08:43:15;32.67;;;16.80;;
4732;SDS011;2380;53.668;10.008;2022-11-15T08:45:45;30.50;;;18.00;;
4732;SDS011;2380;53.668;10.008;2022-11-15T08:48:14;27.93;;;15.97;;
4732;SDS011;2380;53.668;10.008;2022-11-15T08:50:44;27.63;;;15.97;;
4732;SDS011;2380;53.668;10.008;2022-11-15T08:53:14;35.60;;;16.43;;
4732;SDS011;2380;53.668;10.008;2022-11-15T08:55:46;34.13;;;17.20;;
4732;SDS011;2380;53.668;10.008;2022-11-15T08:58:16;45.53;;;24.17;;
4732;SDS011;2380;53.668;10.008;2022-11-15T09:00:45;44.20;;;23.80;;
4732;SDS011;2380;53.668;10.008;2022-11-15T09:03:15;60.53;;;33.30;;
4732;SDS011;2380;53.668;10.008;2022-11-15T09:05:44;33.53;;;17.77;;
4732;SDS011;2380;53.668;10.008;2022-11-15T09:08:16;27.57;;;15.17;;
4732;SDS011;2380;53.668;10.008;2022-11-15T09:11:06;71.00;;;35.90;;
4732;SDS011;2380;53.668;10.008;2022-11-15T09:13:37;66.37;;;33.30;;
4732;SDS011;2380;53.668;10.008;2022-11-15T09:16:06;65.33;;;34.50;;
4732;SDS011;2380;53.668;10.008;2022-11-15T09:18:38;70.27;;;35.77;;
4732;SDS011;2380;53.668;10.008;2022-11-15T09:21:08;48.50;;;25.00;;
4732;SDS011;2380;53.668;10.008;2022-11-15T09:23:40;39.83;;;21.10;;
4732;SDS011;2380;53.668;10.008;2022-11-15T09:26:09;37.40;;;20.33;;
4732;SDS011;2380;53.668;10.008;2022-11-15T09:28:39;54.53;;;29.27;;
4732;SDS011;2380;53.668;10.008;2022-11-15T09:31:09;38.07;;;22.43;;
4732;SDS011;2380;53.668;10.008;2022-11-15T09:33:46;52.03;;;28.23;;
4732;SDS011;2380;53.668;10.008;2022-11-15T09:36:15;30.70;;;15.60;;
4732;SDS011;2380;53.668;10.008;2022-11-15T09:38:48;35.03;;;19.40;;
4732;SDS011;2380;53.668;10.008;2022-11-15T09:41:24;51.90;;;26.23;;
4732;SDS011;2380;53.668;10.008;2022-11-15T09:44:01;26.50;;;15.77;;
4732;SDS011;2380;53.668;10.008;2022-11-15T09:46:40;23.93;;;14.23;;
4732;SDS011;2380;53.668;10.008;2022-11-15T09:49:15;23.70;;;14.30;;
4732;SDS011;2380;53.668;10.008;2022-11-15T09:51:46;27.03;;;15.57;;
4732;SDS011;2380;53.668;10.008;2022-11-15T09:54:26;23.87;;;14.17;;
4732;SDS011;2380;53.668;10.008;2022-11-15T09:57:18;27.67;;;16.00;;
4732;SDS011;2380;53.668;10.008;2022-11-15T09:59:52;23.00;;;14.07;;
4732;SDS011;2380;53.668;10.008;2022-11-15T10:02:52;22.73;;;13.30;;
4732;SDS011;2380;53.668;10.008;2022-11-15T10:05:28;29.83;;;16.13;;
4732;SDS011;2380;53.668;10.008;2022-11-15T10:07:58;25.33;;;15.40;;
4732;SDS011;2380;53.668;10.008;2022-11-15T10:10:35;22.03;;;13.63;;
4732;SDS011;2380;53.668;10.008;2022-11-15T10:13:07;25.93;;;14.37;;
4732;SDS011;2380;53.668;10.008;2022-11-15T10:15:42;27.83;;;15.03;;
4732;SDS011;2380;53.668;10.008;2022-11-15T10:18:15;26.43;;;14.50;;
4732;SDS011;2380;53.668;10.008;2022-11-15T10:20:49;28.10;;;13.57;;
4732;SDS011;2380;53.668;10.008;2022-11-15T10:23:22;27.00;;;13.57;;
4732;SDS011;2380;53.668;10.008;2022-11-15T10:25:55;25.90;;;14.53;;
4732;SDS011;2380;53.668;10.008;2022-11-15T10:28:32;25.40;;;15.00;;
4732;SDS011;2380;53.668;10.008;2022-11-15T10:31:02;23.07;;;13.80;;
4732;SDS011;2380;53.668;10.008;2022-11-15T10:33:32;22.03;;;13.57;;
4732;SDS011;2380;53.668;10.008;2022-11-15T10:38:51;23.50;;;13.20;;
4732;SDS011;2380;53.668;10.008;2022-11-15T10:41:35;21.93;;;12.63;;
4732;SDS011;2380;53.668;10.008;2022-11-15T10:44:18;26.23;;;13.80;;
4732;SDS011;2380;53.668;10.008;2022-11-15T10:47:05;24.77;;;15.07;;
4732;SDS011;2380;53.668;10.008;2022-11-15T10:52:54;22.83;;;13.13;;
4732;SDS011;2380;53.668;10.008;2022-11-15T10:55:25;21.03;;;13.40;;
4732;SDS011;2380;53.668;10.008;2022-11-15T10:58:00;23.30;;;13.70;;
4732;SDS011;2380;53.668;10.008;2022-11-15T11:00:34;28.83;;;15.30;;
4732;SDS011;2380;53.668;10.008;2022-11-15T11:03:06;24.23;;;14.10;;
4732;SDS011;2380;53.668;10.008;2022-11-15T11:05:49;23.63;;;14.57;;
4732;SDS011;2380;53.668;10.008;2022-11-15T11:08:32;22.40;;;14.80;;
4732;SDS011;2380;53.668;10.008;2022-11-15T11:11:02;22.07;;;13.07;;
4732;SDS011;2380;53.668;10.008;2022-11-15T11:13:36;22.37;;;12.60;;
4732;SDS011;2380;53.668;10.008;2022-11-15T11:16:17;24.00;;;13.40;;
4732;SDS011;2380;53.668;10.008;2022-11-15T11:19:01;23.20;;;14.23;;
4732;SDS011;2380;53.668;10.008;2022-11-15T11:21:37;21.13;;;12.70;;
4732;SDS011;2380;53.668;10.008;2022-11-15T11:24:17;21.47;;;13.10;;
4732;SDS011;2380;53.668;10.008;2022-11-15T11:26:56;21.87;;;13.93;;
4732;SDS011;2380;53.668;10.008;2022-11-15T11:29:38;22.03;;;13.40;;
4732;SDS011;2380;53.668;10.008;2022-11-15T11:32:21;26.23;;;13.17;;
4732;SDS011;2380;53.668;10.008;2022-11-15T11:34:58;22.83;;;11.83;;
4732;SDS011;2380;53.668;10.008;2022-11-15T11:37:36;20.67;;;12.43;;
4732;SDS011;2380;53.668;10.008;2022-11-15T11:40:13;18.87;;;11.97;;
4732;SDS011;2380;53.668;10.008;2022-11-15T11:42:59;24.57;;;12.63;;
4732;SDS011;2380;53.668;10.008;2022-11-15T11:45:43;52.20;;;27.90;;
4732;SDS011;2380;53.668;10.008;2022-11-15T11:48:21;47.10;;;26.53;;
4732;SDS011;2380;53.668;10.008;2022-11-15T11:51:10;21.30;;;12.70;;
4732;SDS011;2380;53.668;10.008;2022-11-15T11:53:44;24.10;;;11.50;;
4732;SDS011;2380;53.668;10.008;2022-11-15T11:56:19;20.03;;;11.20;;
4732;SDS011;2380;53.668;10.008;2022-11-15T11:58:52;20.30;;;11.47;;
4732;SDS011;2380;53.668;10.008;2022-11-15T12:01:30;17.40;;;10.33;;
4732;SDS011;2380;53.668;10.008;2022-11-15T12:04:04;16.20;;;11.40;;
4732;SDS011;2380;53.668;10.008;2022-11-15T12:06:41;18.23;;;11.63;;
4732;SDS011;2380;53.668;10.008;2022-11-15T12:09:16;18.90;;;11.33;;
4732;SDS011;2380;53.668;10.008;2022-11-15T12:11:52;18.87;;;11.43;;
4732;SDS011;2380;53.668;10.008;2022-11-15T12:14:27;22.40;;;10.50;;
4732;SDS011;2380;53.668;10.008;2022-11-15T12:17:03;18.10;;;11.20;;
4732;SDS011;2380;53.668;10.008;2022-11-15T12:19:32;16.90;;;11.27;;
4732;SDS011;2380;53.668;10.008;2022-11-15T12:22:03;117.37;;;44.70;;
4732;SDS011;2380;53.668;10.008;2022-11-15T12:24:37;31.30;;;17.13;;
4732;SDS011;2380;53.668;10.008;2022-11-15T12:27:13;24.60;;;12.83;;
4732;SDS011;2380;53.668;10.008;2022-11-15T12:29:52;56.33;;;30.30;;
4732;SDS011;2380;53.668;10.008;2022-11-15T12:32:27;32.07;;;17.93;;
4732;SDS011;2380;53.668;10.008;2022-11-15T12:34:59;30.10;;;17.13;;
4732;SDS011;2380;53.668;10.008;2022-11-15T12:37:34;24.23;;;13.40;;
4732;SDS011;2380;53.668;10.008;2022-11-15T12:40:31;34.10;;;20.30;;
4732;SDS011;2380;53.668;10.008;2022-11-15T12:43:03;37.23;;;19.77;;
4732;SDS011;2380;53.668;10.008;2022-11-15T12:45:48;33.83;;;18.83;;
4732;SDS011;2380;53.668;10.008;2022-11-15T12:57:27;33.07;;;18.40;;
4732;SDS011;2380;53.668;10.008;2022-11-15T13:03:18;27.10;;;15.03;;
4732;SDS011;2380;53.668;10.008;2022-11-15T13:05:57;26.30;;;14.80;;
4732;SDS011;2380;53.668;10.008;2022-11-15T13:14:37;20.37;;;11.67;;
4732;SDS011;2380;53.668;10.008;2022-11-15T13:22:48;23.77;;;14.57;;
4732;SDS011;2380;53.668;10.008;2022-11-15T13:28:24;16.77;;;11.13;;
4732;SDS011;2380;53.668;10.008;2022-11-15T13:30:58;17.73;;;11.37;;
4732;SDS011;2380;53.668;10.008;2022-11-15T13:33:30;18.87;;;10.47;;
4732;SDS011;2380;53.668;10.008;2022-11-15T13:36:02;21.27;;;13.00;;
4732;SDS011;2380;53.668;10.008;2022-11-15T13:38:35;67.83;;;35.10;;
4732;SDS011;2380;53.668;10.008;2022-11-15T13:41:16;18.03;;;10.63;;
4732;SDS011;2380;53.668;10.008;2022-11-15T13:43:50;20.13;;;10.17;;
4732;SDS011;2380;53.668;10.008;2022-11-15T13:46:21;17.03;;;9.97;;
4732;SDS011;2380;53.668;10.008;2022-11-15T13:48:52;15.50;;;9.73;;
4732;SDS011;2380;53.668;10.008;2022-11-15T13:51:25;19.33;;;9.27;;
4732;SDS011;2380;53.668;10.008;2022-11-15T13:54:00;15.17;;;10.00;;
4732;SDS011;2380;53.668;10.008;2022-11-15T13:56:32;15.43;;;9.13;;
4732;SDS011;2380;53.668;10.008;2022-11-15T13:59:10;15.23;;;9.03;;
4732;SDS011;2380;53.668;10.008;2022-11-15T14:01:44;13.50;;;8.63;;
4732;SDS011;2380;53.668;10.008;2022-11-15T14:04:14;13.50;;;8.10;;
4732;SDS011;2380;53.668;10.008;2022-11-15T14:06:48;17.40;;;9.57;;
4732;SDS011;2380;53.668;10.008;2022-11-15T14:09:25;15.07;;;9.03;;
4732;SDS011;2380;53.668;10.008;2022-11-15T14:12:00;19.73;;;9.00;;
4732;SDS011;2380;53.668;10.008;2022-11-15T14:14:34;18.13;;;8.87;;
4732;SDS011;2380;53.668;10.008;2022-11-15T14:17:18;13.70;;;9.10;;
4732;SDS011;2380;53.668;10.008;2022-11-15T14:19:49;12.67;;;8.47;;
4732;SDS011;2380;53.668;10.008;2022-11-15T14:22:21;13.97;;;8.50;;
4732;SDS011;2380;53.668;10.008;2022-11-15T14:27:44;17.93;;;9.17;;
4732;SDS011;2380;53.668;10.008;2022-11-15T14:30:36;21.37;;;8.83;;
4732;SDS011;2380;53.668;10.008;2022-11-15T14:33:17;12.90;;;8.50;;
4732;SDS011;2380;53.668;10.008;2022-11-15T14:35:48;15.03;;;8.70;;
4732;SDS011;2380;53.668;10.008;2022-11-15T14:38:18;13.67;;;9.13;;
4732;SDS011;2380;53.668;10.008;2022-11-15T14:40:47;18.00;;;10.00;;
4732;SDS011;2380;53.668;10.008;2022-11-15T14:43:17;40.57;;;23.30;;
4732;SDS011;2380;53.668;10.008;2022-11-15T14:45:49;24.13;;;12.63;;
4732;SDS011;2380;53.668;10.008;2022-11-15T14:48:19;18.60;;;9.90;;
4732;SDS011;2380;53.668;10.008;2022-11-15T14:50:48;16.27;;;9.37;;
4732;SDS011;2380;53.668;10.008;2022-11-15T14:53:18;21.53;;;11.00;;
4732;SDS011;2380;53.668;10.008;2022-11-15T14:55:48;15.10;;;9.50;;
4732;SDS011;2380;53.668;10.008;2022-11-15T14:58:18;19.23;;;9.40;;
4732;SDS011;2380;53.668;10.008;2022-11-15T15:00:50;13.03;;;8.27;;
4732;SDS011;2380;53.668;10.008;2022-11-15T15:03:19;15.33;;;9.07;;
4732;SDS011;2380;53.668;10.008;2022-11-15T15:05:49;13.90;;;9.17;;
4732;SDS011;2380;53.668;10.008;2022-11-15T15:08:18;15.97;;;9.20;;
4732;SDS011;2380;53.668;10.008;2022-11-15T15:10:48;16.60;;;9.57;;
4732;SDS011;2380;53.668;10.008;2022-11-15T15:13:18;14.83;;;9.10;;
4732;SDS011;2380;53.668;10.008;2022-11-15T15:15:51;17.77;;;10.60;;
4732;SDS011;2380;53.668;10.008;2022-11-15T15:18:20;14.67;;;8.30;;
4732;SDS011;2380;53.668;10.008;2022-11-15T15:20:53;15.43;;;9.90;;
4732;SDS011;2380;53.668;10.008;2022-11-15T15:23:24;15.70;;;8.97;;
4732;SDS011;2380;53.668;10.008;2022-11-15T15:25:58;14.10;;;9.70;;
4732;SDS011;2380;53.668;10.008;2022-11-15T15:28:27;17.73;;;10.00;;
4732;SDS011;2380;53.668;10.008;2022-11-15T15:31:03;15.00;;;9.40;;
4732;SDS011;2380;53.668;10.008;2022-11-15T15:33:33;17.17;;;10.37;;
4732;SDS011;2380;53.668;10.008;2022-11-15T15:36:03;14.57;;;9.00;;
4732;SDS011;2380;53.668;10.008;2022-11-15T15:38:32;14.40;;;9.70;;
4732;SDS011;2380;53.668;10.008;2022-11-15T15:41:02;19.60;;;9.73;;
4732;SDS011;2380;53.668;10.008;2022-11-15T15:43:31;16.30;;;9.60;;
4732;SDS011;2380;53.668;10.008;2022-11-15T15:46:04;17.10;;;10.00;;
4732;SDS011;2380;53.668;10.008;2022-11-15T15:48:33;40.93;;;22.60;;
4732;SDS011;2380;53.668;10.008;2022-11-15T15:51:04;29.90;;;16.70;;